createdAt,value
2019-05-13T00:05:14.923Z,70.00
2019-05-13T00:11:59.912Z,69.40
2019-05-13T00:18:44.930Z,70.10
2019-05-13T00:25:29.795Z,70.80
2019-05-13T00:32:14.860Z,72.20
2019-05-13T00:38:59.796Z,70.20
2019-05-13T00:45:45.323Z,68.60
2019-05-13T00:52:30.975Z,68.90
2019-05-13T00:59:15.949Z,68.90
2019-05-13T01:06:00.884Z,68.70
2019-05-13T01:12:45.892Z,68.60
2019-05-13T01:19:31.294Z,71.30
2019-05-13T01:26:16.312Z,73.00
2019-05-13T01:33:01.340Z,73.20
2019-05-13T01:39:46.277Z,73.90
2019-05-13T01:46:31.217Z,73.50
2019-05-13T01:53:16.411Z,75.10
2019-05-13T02:00:01.374Z,75.00
2019-05-13T02:06:46.604Z,74.80
2019-05-13T02:13:34.073Z,73.70
2019-05-13T02:20:18.131Z,73.70
2019-05-13T02:27:03.931Z,73.80
2019-05-13T02:33:48.925Z,73.90
2019-05-13T02:41:22.977Z,74.30
2019-05-13T02:48:07.887Z,72.70
2019-05-13T02:54:52.991Z,73.40
2019-05-13T03:01:37.970Z,73.50
2019-05-13T03:08:39.827Z,72.80
2019-05-13T03:15:13.068Z,72.40
2019-05-13T03:21:56.606Z,73.10
2019-05-13T03:28:43.715Z,74.60
2019-05-13T03:35:28.357Z,76.10
2019-05-13T03:42:14.134Z,77.20
2019-05-13T03:49:02.436Z,78.10
2019-05-13T03:55:49.226Z,78.60
2019-05-13T04:02:34.579Z,78.10
2019-05-13T04:09:29.771Z,78.60
2019-05-13T04:16:06.180Z,77.10
2019-05-13T04:22:53.009Z,76.30
2019-05-13T04:29:37.705Z,74.60
2019-05-13T04:36:23.684Z,72.30
2019-05-13T04:43:13.055Z,72.00
2019-05-13T04:49:57.091Z,71.10
2019-05-13T04:56:42.373Z,70.60
2019-05-13T05:03:46.784Z,67.90
2019-05-13T05:11:06.490Z,68.30
2019-05-13T05:18:27.716Z,59.40
2019-05-13T05:25:18.336Z,34.60
2019-05-13T05:32:24.926Z,29.60
2019-05-13T05:39:26.166Z,27.80
2019-05-13T05:46:13.327Z,26.50
2019-05-13T05:53:01.900Z,24.90
2019-05-13T05:59:48.417Z,24.50
2019-05-13T06:06:33.590Z,23.90
2019-05-13T06:13:18.583Z,22.10
2019-05-13T06:20:05.445Z,23.00
2019-05-13T06:26:52.067Z,23.70
2019-05-13T06:33:37.879Z,23.50
2019-05-13T06:40:22.876Z,22.80
2019-05-13T06:47:07.730Z,22.00
2019-05-13T06:53:52.583Z,22.70
2019-05-13T07:00:37.511Z,22.80
2019-05-13T07:07:22.375Z,21.80
2019-05-13T07:14:07.320Z,21.60
2019-05-13T07:20:53.042Z,22.20
2019-05-13T07:27:38.189Z,23.30
2019-05-13T07:34:24.612Z,22.50
2019-05-13T07:41:11.991Z,22.60
2019-05-13T07:47:56.491Z,22.10
2019-05-13T07:54:42.047Z,22.30
2019-05-13T08:01:27.144Z,22.40
2019-05-13T08:08:12.522Z,22.00
2019-05-13T08:14:57.467Z,20.60
2019-05-13T08:21:42.471Z,21.70
2019-05-13T08:28:27.411Z,21.10
2019-05-13T08:35:12.783Z,20.80
2019-05-13T08:42:11.708Z,22.10
2019-05-13T08:48:45.666Z,22.00
2019-05-13T08:55:32.158Z,22.00
2019-05-13T09:02:17.329Z,21.80
2019-05-13T09:09:02.568Z,22.50
2019-05-13T09:15:47.799Z,21.30
2019-05-13T09:22:32.825Z,20.90
2019-05-13T09:29:17.851Z,20.20
2019-05-13T09:36:02.726Z,19.40
2019-05-13T09:42:51.927Z,20.80
2019-05-13T09:49:34.522Z,20.30
2019-05-13T09:56:19.446Z,21.00
2019-05-13T10:03:04.462Z,20.70
2019-05-13T10:09:51.805Z,20.90
2019-05-13T10:16:36.074Z,21.80
2019-05-13T10:23:22.110Z,21.00
2019-05-13T10:30:08.114Z,21.20
2019-05-13T10:36:53.679Z,21.10
2019-05-13T10:43:42.458Z,21.60
2019-05-13T10:50:27.723Z,21.00
2019-05-13T10:57:13.556Z,22.40
2019-05-13T11:03:58.370Z,23.20
2019-05-13T11:10:43.235Z,23.90
2019-05-13T11:17:30.933Z,24.10
2019-05-13T11:24:14.879Z,23.70
2019-05-13T11:31:02.870Z,24.00
2019-05-13T11:37:46.524Z,21.90
2019-05-13T11:44:32.312Z,23.40
2019-05-13T11:51:17.410Z,23.00
2019-05-13T11:58:03.065Z,23.60
2019-05-13T12:04:48.257Z,22.20
2019-05-13T12:11:33.557Z,22.30
2019-05-13T12:18:23.067Z,22.70
2019-05-13T12:25:06.908Z,23.90
2019-05-13T12:31:52.786Z,23.00
2019-05-13T12:38:37.936Z,23.70
2019-05-13T12:45:23.491Z,22.50
2019-05-13T12:52:08.530Z,22.40
2019-05-13T12:58:53.529Z,23.00
2019-05-13T13:05:43.305Z,22.30
2019-05-13T13:12:34.596Z,22.20
2019-05-13T13:19:15.066Z,22.50
2019-05-13T13:26:03.021Z,22.60
2019-05-13T13:32:47.204Z,22.50
2019-05-13T13:39:32.487Z,22.70
2019-05-13T13:46:36.960Z,23.00
2019-05-13T13:53:04.406Z,22.10
2019-05-13T14:00:19.176Z,21.90
2019-05-13T14:13:22.623Z,22.90
2019-05-13T14:20:08.315Z,24.20
2019-05-13T14:26:53.259Z,22.70
2019-05-13T14:33:38.580Z,22.70
2019-05-13T14:40:23.652Z,23.00
2019-05-13T14:47:08.716Z,23.00
2019-05-13T14:53:53.819Z,22.50
2019-05-13T15:00:38.743Z,22.60
2019-05-13T15:07:23.599Z,22.20
2019-05-13T15:14:08.542Z,21.70
2019-05-13T15:20:53.395Z,22.10
2019-05-13T15:27:38.250Z,21.90
2019-05-13T15:34:23.378Z,22.30
2019-05-13T15:41:11.744Z,22.30
2019-05-13T15:47:54.914Z,22.20
2019-05-13T15:54:41.472Z,22.90
2019-05-13T16:01:26.467Z,23.40
2019-05-13T16:08:12.142Z,22.30
2019-05-13T16:14:57.214Z,22.90
2019-05-13T16:21:42.074Z,23.30
2019-05-13T16:28:26.926Z,23.20
2019-05-13T16:35:13.578Z,23.30
2019-05-13T16:41:58.695Z,23.70
2019-05-13T16:48:43.561Z,24.60
2019-05-13T16:55:28.482Z,25.10
2019-05-13T17:02:13.523Z,25.40
2019-05-13T17:08:58.383Z,25.00
2019-05-13T17:15:43.236Z,24.70
2019-05-13T17:22:28.197Z,24.90
2019-05-13T17:29:13.046Z,24.60
2019-05-13T17:35:57.894Z,24.50
2019-05-13T17:42:42.763Z,23.90
2019-05-13T17:49:27.619Z,24.00
2019-05-13T17:56:12.547Z,24.20
2019-05-13T18:02:57.476Z,24.00
2019-05-13T18:09:42.536Z,23.50
2019-05-13T18:16:27.437Z,23.50
2019-05-13T18:23:12.293Z,23.20
2019-05-13T18:29:57.234Z,22.70
2019-05-13T18:36:42.667Z,23.30
2019-05-13T18:43:29.195Z,23.50
2019-05-13T18:50:14.216Z,23.00
2019-05-13T18:57:01.392Z,23.70
2019-05-13T19:03:45.702Z,26.00
2019-05-13T19:10:31.320Z,27.50
2019-05-13T19:17:16.246Z,28.60
2019-05-13T19:24:02.034Z,28.60
2019-05-13T19:30:47.050Z,29.60
2019-05-13T19:37:31.937Z,30.60
2019-05-13T19:44:17.334Z,33.40
2019-05-13T19:51:02.221Z,34.50
2019-05-13T19:57:47.159Z,34.90
2019-05-13T20:04:32.155Z,37.00
2019-05-13T20:11:17.055Z,37.60
2019-05-13T20:18:01.986Z,39.10
2019-05-13T20:24:47.006Z,40.20
2019-05-13T20:31:32.260Z,39.50
2019-05-13T20:38:17.143Z,42.10
2019-05-13T20:45:02.557Z,42.90
2019-05-13T20:51:48.612Z,44.20
2019-05-13T20:58:33.530Z,45.10
2019-05-13T21:05:21.406Z,44.90
2019-05-13T21:12:05.925Z,47.30
2019-05-13T21:18:50.946Z,47.80
2019-05-13T21:25:36.204Z,49.50
2019-05-13T21:32:21.428Z,50.90
2019-05-13T21:39:07.579Z,53.60
2019-05-13T21:45:52.857Z,51.10
2019-05-13T21:52:37.768Z,49.80
2019-05-13T21:59:23.328Z,54.60
2019-05-13T22:06:10.963Z,58.50
2019-05-13T22:12:55.272Z,56.50
2019-05-13T22:19:41.958Z,57.00
2019-05-13T22:26:26.683Z,57.70
2019-05-13T22:33:12.321Z,56.30
2019-05-13T22:39:57.302Z,59.10
2019-05-13T22:46:42.143Z,58.20
2019-05-13T22:53:27.226Z,58.60
2019-05-13T23:00:13.381Z,58.90
2019-05-13T23:07:01.293Z,60.20
2019-05-13T23:13:46.469Z,57.90
2019-05-13T23:20:31.878Z,58.40
2019-05-13T23:27:17.414Z,56.10
2019-05-13T23:34:02.502Z,55.80
2019-05-13T23:40:47.439Z,60.20
2019-05-13T23:47:32.419Z,62.80
2019-05-13T23:54:17.360Z,63.90
